sensor_id;sensor_type;location;lat;lon;timestamp;P1;durP1;ratioP1;P2;durP2;ratioP2
54881;SDS011;40775;51.448;4.742;2024-02-26T00:02:18;3.25;;;0.95;;
54881;SDS011;40775;51.448;4.742;2024-02-26T00:04:45;2.22;;;0.90;;
54881;SDS011;40775;51.448;4.742;2024-02-26T00:07:12;1.90;;;0.85;;
54881;SDS011;40775;51.448;4.742;2024-02-26T00:09:39;1.58;;;0.90;;
54881;SDS011;40775;51.448;4.742;2024-02-26T00:12:06;2.47;;;0.73;;
54881;SDS011;40775;51.448;4.742;2024-02-26T00:14:34;1.83;;;0.88;;
54881;SDS011;40775;51.448;4.742;2024-02-26T00:17:01;3.30;;;0.98;;
54881;SDS011;40775;51.448;4.742;2024-02-26T00:19:28;2.05;;;0.98;;
54881;SDS011;40775;51.448;4.742;2024-02-26T00:21:56;1.48;;;0.65;;
54881;SDS011;40775;51.448;4.742;2024-02-26T00:24:23;2.40;;;0.85;;
54881;SDS011;40775;51.448;4.742;2024-02-26T00:26:51;3.53;;;0.77;;
54881;SDS011;40775;51.448;4.742;2024-02-26T00:29:21;4.30;;;1.38;;
54881;SDS011;40775;51.448;4.742;2024-02-26T00:31:48;2.03;;;0.90;;
54881;SDS011;40775;51.448;4.742;2024-02-26T00:34:15;1.55;;;0.75;;
54881;SDS011;40775;51.448;4.742;2024-02-26T00:36:42;2.95;;;0.90;;
54881;SDS011;40775;51.448;4.742;2024-02-26T00:39:11;3.13;;;1.10;;
54881;SDS011;40775;51.448;4.742;2024-02-26T00:41:39;1.42;;;0.65;;
54881;SDS011;40775;51.448;4.742;2024-02-26T00:44:07;2.05;;;0.85;;
54881;SDS011;40775;51.448;4.742;2024-02-26T00:46:34;2.08;;;0.80;;
54881;SDS011;40775;51.448;4.742;2024-02-26T00:49:02;2.67;;;1.00;;
54881;SDS011;40775;51.448;4.742;2024-02-26T00:51:29;3.00;;;1.02;;
54881;SDS011;40775;51.448;4.742;2024-02-26T00:53:57;2.47;;;0.82;;
54881;SDS011;40775;51.448;4.742;2024-02-26T00:56:24;1.83;;;0.95;;
54881;SDS011;40775;51.448;4.742;2024-02-26T00:58:51;1.63;;;0.90;;
54881;SDS011;40775;51.448;4.742;2024-02-26T01:01:18;2.08;;;0.63;;
54881;SDS011;40775;51.448;4.742;2024-02-26T01:03:46;2.78;;;1.13;;
54881;SDS011;40775;51.448;4.742;2024-02-26T01:06:13;2.05;;;1.10;;
54881;SDS011;40775;51.448;4.742;2024-02-26T01:08:40;2.50;;;1.00;;
54881;SDS011;40775;51.448;4.742;2024-02-26T01:11:07;2.20;;;1.00;;
54881;SDS011;40775;51.448;4.742;2024-02-26T01:13:35;1.75;;;0.85;;
54881;SDS011;40775;51.448;4.742;2024-02-26T01:16:02;1.45;;;0.88;;
54881;SDS011;40775;51.448;4.742;2024-02-26T01:18:29;2.30;;;0.95;;
54881;SDS011;40775;51.448;4.742;2024-02-26T01:20:57;3.88;;;1.00;;
54881;SDS011;40775;51.448;4.742;2024-02-26T01:23:24;2.28;;;0.98;;
54881;SDS011;40775;51.448;4.742;2024-02-26T01:25:51;1.35;;;0.63;;
54881;SDS011;40775;51.448;4.742;2024-02-26T01:28:18;2.55;;;0.93;;
54881;SDS011;40775;51.448;4.742;2024-02-26T01:30:45;1.92;;;0.90;;
54881;SDS011;40775;51.448;4.742;2024-02-26T01:33:12;3.20;;;1.13;;
54881;SDS011;40775;51.448;4.742;2024-02-26T01:35:39;1.55;;;0.73;;
54881;SDS011;40775;51.448;4.742;2024-02-26T01:38:06;3.33;;;1.13;;
54881;SDS011;40775;51.448;4.742;2024-02-26T01:40:33;2.75;;;0.73;;
54881;SDS011;40775;51.448;4.742;2024-02-26T01:43:01;3.60;;;1.23;;
54881;SDS011;40775;51.448;4.742;2024-02-26T01:45:28;1.73;;;0.98;;
54881;SDS011;40775;51.448;4.742;2024-02-26T01:47:55;3.95;;;1.30;;
54881;SDS011;40775;51.448;4.742;2024-02-26T01:50:23;2.25;;;0.85;;
54881;SDS011;40775;51.448;4.742;2024-02-26T01:52:51;1.33;;;0.60;;
54881;SDS011;40775;51.448;4.742;2024-02-26T01:55:20;2.22;;;1.02;;
54881;SDS011;40775;51.448;4.742;2024-02-26T01:57:50;3.22;;;0.98;;
54881;SDS011;40775;51.448;4.742;2024-02-26T02:00:19;2.45;;;0.98;;
54881;SDS011;40775;51.448;4.742;2024-02-26T02:02:48;2.25;;;0.73;;
54881;SDS011;40775;51.448;4.742;2024-02-26T02:05:16;1.70;;;0.93;;
54881;SDS011;40775;51.448;4.742;2024-02-26T02:07:44;1.40;;;0.80;;
54881;SDS011;40775;51.448;4.742;2024-02-26T02:10:13;2.40;;;0.80;;
54881;SDS011;40775;51.448;4.742;2024-02-26T02:12:40;3.40;;;0.85;;
54881;SDS011;40775;51.448;4.742;2024-02-26T02:15:07;2.08;;;0.90;;
54881;SDS011;40775;51.448;4.742;2024-02-26T02:17:35;2.42;;;1.00;;
54881;SDS011;40775;51.448;4.742;2024-02-26T02:20:02;2.70;;;1.10;;
54881;SDS011;40775;51.448;4.742;2024-02-26T02:22:30;2.88;;;0.90;;
54881;SDS011;40775;51.448;4.742;2024-02-26T02:24:58;1.15;;;0.70;;
54881;SDS011;40775;51.448;4.742;2024-02-26T02:27:27;2.65;;;1.10;;
54881;SDS011;40775;51.448;4.742;2024-02-26T02:29:55;2.03;;;0.80;;
54881;SDS011;40775;51.448;4.742;2024-02-26T02:32:22;1.90;;;0.93;;
54881;SDS011;40775;51.448;4.742;2024-02-26T02:34:51;4.13;;;1.10;;
54881;SDS011;40775;51.448;4.742;2024-02-26T02:37:18;2.80;;;1.17;;
54881;SDS011;40775;51.448;4.742;2024-02-26T02:39:45;2.42;;;1.20;;
54881;SDS011;40775;51.448;4.742;2024-02-26T02:42:13;2.75;;;1.15;;
54881;SDS011;40775;51.448;4.742;2024-02-26T02:44:40;2.53;;;1.10;;
54881;SDS011;40775;51.448;4.742;2024-02-26T02:47:07;2.25;;;0.88;;
54881;SDS011;40775;51.448;4.742;2024-02-26T02:49:34;2.72;;;1.00;;
54881;SDS011;40775;51.448;4.742;2024-02-26T02:52:01;2.88;;;1.38;;
54881;SDS011;40775;51.448;4.742;2024-02-26T02:54:28;1.77;;;0.95;;
54881;SDS011;40775;51.448;4.742;2024-02-26T02:56:55;2.00;;;0.90;;
54881;SDS011;40775;51.448;4.742;2024-02-26T02:59:22;2.25;;;0.95;;
54881;SDS011;40775;51.448;4.742;2024-02-26T03:01:49;2.25;;;0.88;;
54881;SDS011;40775;51.448;4.742;2024-02-26T03:04:16;1.95;;;0.70;;
54881;SDS011;40775;51.448;4.742;2024-02-26T03:06:44;1.85;;;0.93;;
54881;SDS011;40775;51.448;4.742;2024-02-26T03:09:11;2.20;;;0.80;;
54881;SDS011;40775;51.448;4.742;2024-02-26T03:11:38;1.95;;;0.80;;
54881;SDS011;40775;51.448;4.742;2024-02-26T03:14:06;1.15;;;0.70;;
54881;SDS011;40775;51.448;4.742;2024-02-26T03:16:33;2.22;;;0.85;;
54881;SDS011;40775;51.448;4.742;2024-02-26T03:19:00;1.30;;;0.65;;
54881;SDS011;40775;51.448;4.742;2024-02-26T03:21:29;2.28;;;1.00;;
54881;SDS011;40775;51.448;4.742;2024-02-26T03:23:56;1.85;;;0.98;;
54881;SDS011;40775;51.448;4.742;2024-02-26T03:26:23;1.95;;;0.80;;
54881;SDS011;40775;51.448;4.742;2024-02-26T03:28:50;3.55;;;1.25;;
54881;SDS011;40775;51.448;4.742;2024-02-26T03:31:17;3.00;;;1.00;;
54881;SDS011;40775;51.448;4.742;2024-02-26T03:33:45;3.00;;;0.70;;
54881;SDS011;40775;51.448;4.742;2024-02-26T03:36:12;2.30;;;0.98;;
54881;SDS011;40775;51.448;4.742;2024-02-26T03:38:40;1.67;;;0.80;;
54881;SDS011;40775;51.448;4.742;2024-02-26T03:41:07;2.55;;;1.35;;
54881;SDS011;40775;51.448;4.742;2024-02-26T03:43:34;2.25;;;0.90;;
54881;SDS011;40775;51.448;4.742;2024-02-26T03:46:01;2.60;;;0.88;;
54881;SDS011;40775;51.448;4.742;2024-02-26T03:48:28;1.45;;;0.82;;
54881;SDS011;40775;51.448;4.742;2024-02-26T03:50:56;1.58;;;0.80;;
54881;SDS011;40775;51.448;4.742;2024-02-26T03:53:23;0.73;;;0.60;;
54881;SDS011;40775;51.448;4.742;2024-02-26T03:55:50;1.98;;;0.82;;
54881;SDS011;40775;51.448;4.742;2024-02-26T03:58:18;1.83;;;0.80;;
54881;SDS011;40775;51.448;4.742;2024-02-26T04:00:45;1.63;;;0.80;;
54881;SDS011;40775;51.448;4.742;2024-02-26T04:03:14;1.90;;;0.80;;
54881;SDS011;40775;51.448;4.742;2024-02-26T04:05:41;2.17;;;0.95;;
54881;SDS011;40775;51.448;4.742;2024-02-26T04:08:08;2.65;;;1.05;;
54881;SDS011;40775;51.448;4.742;2024-02-26T04:10:37;1.38;;;0.85;;
54881;SDS011;40775;51.448;4.742;2024-02-26T04:13:07;1.13;;;0.95;;
54881;SDS011;40775;51.448;4.742;2024-02-26T04:15:35;2.03;;;0.90;;
54881;SDS011;40775;51.448;4.742;2024-02-26T04:18:02;1.27;;;0.90;;
54881;SDS011;40775;51.448;4.742;2024-02-26T04:20:29;2.40;;;0.70;;
54881;SDS011;40775;51.448;4.742;2024-02-26T04:22:56;1.40;;;0.82;;
54881;SDS011;40775;51.448;4.742;2024-02-26T04:25:23;1.83;;;0.68;;
54881;SDS011;40775;51.448;4.742;2024-02-26T04:27:50;2.65;;;0.88;;
54881;SDS011;40775;51.448;4.742;2024-02-26T04:30:17;1.65;;;0.93;;
54881;SDS011;40775;51.448;4.742;2024-02-26T04:32:44;1.98;;;0.93;;
54881;SDS011;40775;51.448;4.742;2024-02-26T04:35:12;1.73;;;0.80;;
54881;SDS011;40775;51.448;4.742;2024-02-26T04:37:39;0.93;;;0.52;;
54881;SDS011;40775;51.448;4.742;2024-02-26T04:40:06;1.55;;;0.77;;
54881;SDS011;40775;51.448;4.742;2024-02-26T04:42:34;0.88;;;0.65;;
54881;SDS011;40775;51.448;4.742;2024-02-26T04:45:01;1.10;;;0.47;;
54881;SDS011;40775;51.448;4.742;2024-02-26T04:47:28;3.58;;;1.00;;
54881;SDS011;40775;51.448;4.742;2024-02-26T04:49:56;1.35;;;0.60;;
54881;SDS011;40775;51.448;4.742;2024-02-26T04:52:23;1.98;;;0.80;;
54881;SDS011;40775;51.448;4.742;2024-02-26T04:54:50;1.15;;;0.68;;
54881;SDS011;40775;51.448;4.742;2024-02-26T04:57:17;1.85;;;0.77;;
54881;SDS011;40775;51.448;4.742;2024-02-26T04:59:45;2.08;;;0.80;;
54881;SDS011;40775;51.448;4.742;2024-02-26T05:02:12;4.30;;;1.00;;
54881;SDS011;40775;51.448;4.742;2024-02-26T05:04:40;1.63;;;0.90;;
54881;SDS011;40775;51.448;4.742;2024-02-26T05:07:07;2.53;;;0.90;;
54881;SDS011;40775;51.448;4.742;2024-02-26T05:09:34;1.20;;;0.55;;
54881;SDS011;40775;51.448;4.742;2024-02-26T05:12:02;1.30;;;0.70;;
54881;SDS011;40775;51.448;4.742;2024-02-26T05:14:30;3.42;;;1.25;;
54881;SDS011;40775;51.448;4.742;2024-02-26T05:16:57;1.42;;;0.88;;
54881;SDS011;40775;51.448;4.742;2024-02-26T05:19:24;2.03;;;0.73;;
54881;SDS011;40775;51.448;4.742;2024-02-26T05:21:51;2.58;;;1.00;;
54881;SDS011;40775;51.448;4.742;2024-02-26T05:24:18;2.25;;;0.70;;
54881;SDS011;40775;51.448;4.742;2024-02-26T05:26:48;2.95;;;0.93;;
54881;SDS011;40775;51.448;4.742;2024-02-26T05:29:16;2.92;;;0.93;;
54881;SDS011;40775;51.448;4.742;2024-02-26T05:31:43;1.67;;;1.00;;
54881;SDS011;40775;51.448;4.742;2024-02-26T05:34:10;2.63;;;0.93;;
54881;SDS011;40775;51.448;4.742;2024-02-26T05:36:38;6.50;;;1.02;;
54881;SDS011;40775;51.448;4.742;2024-02-26T05:39:05;1.45;;;0.77;;
54881;SDS011;40775;51.448;4.742;2024-02-26T05:41:35;2.20;;;0.75;;
54881;SDS011;40775;51.448;4.742;2024-02-26T05:44:02;2.05;;;0.70;;
54881;SDS011;40775;51.448;4.742;2024-02-26T05:46:30;1.30;;;0.65;;
54881;SDS011;40775;51.448;4.742;2024-02-26T05:48:57;2.53;;;0.90;;
54881;SDS011;40775;51.448;4.742;2024-02-26T05:51:24;2.00;;;1.00;;
54881;SDS011;40775;51.448;4.742;2024-02-26T05:53:51;3.15;;;1.20;;
54881;SDS011;40775;51.448;4.742;2024-02-26T05:56:21;4.75;;;1.00;;
54881;SDS011;40775;51.448;4.742;2024-02-26T05:58:49;1.88;;;0.60;;
54881;SDS011;40775;51.448;4.742;2024-02-26T06:01:16;2.05;;;1.05;;
54881;SDS011;40775;51.448;4.742;2024-02-26T06:03:44;2.53;;;1.02;;
54881;SDS011;40775;51.448;4.742;2024-02-26T06:06:11;2.40;;;0.85;;
54881;SDS011;40775;51.448;4.742;2024-02-26T06:08:40;2.72;;;0.98;;
54881;SDS011;40775;51.448;4.742;2024-02-26T06:11:07;2.83;;;1.13;;
54881;SDS011;40775;51.448;4.742;2024-02-26T06:13:35;2.00;;;1.00;;
54881;SDS011;40775;51.448;4.742;2024-02-26T06:16:02;1.60;;;0.80;;
54881;SDS011;40775;51.448;4.742;2024-02-26T06:18:30;1.08;;;0.75;;
54881;SDS011;40775;51.448;4.742;2024-02-26T06:20:57;1.58;;;1.02;;
54881;SDS011;40775;51.448;4.742;2024-02-26T06:23:24;0.95;;;0.77;;
54881;SDS011;40775;51.448;4.742;2024-02-26T06:25:55;3.35;;;0.90;;
54881;SDS011;40775;51.448;4.742;2024-02-26T06:28:26;1.92;;;0.82;;
54881;SDS011;40775;51.448;4.742;2024-02-26T06:30:56;2.42;;;0.90;;
54881;SDS011;40775;51.448;4.742;2024-02-26T06:33:23;2.95;;;1.10;;
54881;SDS011;40775;51.448;4.742;2024-02-26T06:35:50;1.80;;;0.70;;
54881;SDS011;40775;51.448;4.742;2024-02-26T06:38:17;1.55;;;0.80;;
54881;SDS011;40775;51.448;4.742;2024-02-26T06:40:45;2.60;;;1.00;;
54881;SDS011;40775;51.448;4.742;2024-02-26T06:43:12;1.98;;;0.80;;
54881;SDS011;40775;51.448;4.742;2024-02-26T06:45:44;2.28;;;1.40;;
54881;SDS011;40775;51.448;4.742;2024-02-26T06:48:18;1.42;;;0.50;;
54881;SDS011;40775;51.448;4.742;2024-02-26T06:50:51;1.10;;;0.38;;
54881;SDS011;40775;51.448;4.742;2024-02-26T06:53:19;0.63;;;0.20;;
54881;SDS011;40775;51.448;4.742;2024-02-26T06:55:46;0.95;;;0.32;;
54881;SDS011;40775;51.448;4.742;2024-02-26T06:58:13;0.40;;;0.30;;
54881;SDS011;40775;51.448;4.742;2024-02-26T07:00:40;1.38;;;0.40;;
54881;SDS011;40775;51.448;4.742;2024-02-26T07:03:07;0.98;;;0.40;;
54881;SDS011;40775;51.448;4.742;2024-02-26T07:05:35;0.40;;;0.40;;
54881;SDS011;40775;51.448;4.742;2024-02-26T07:08:02;0.30;;;0.30;;
54881;SDS011;40775;51.448;4.742;2024-02-26T07:10:29;0.88;;;0.25;;
54881;SDS011;40775;51.448;4.742;2024-02-26T07:12:56;1.13;;;0.20;;
54881;SDS011;40775;51.448;4.742;2024-02-26T07:15:23;0.70;;;0.28;;
54881;SDS011;40775;51.448;4.742;2024-02-26T07:17:50;0.52;;;0.22;;
54881;SDS011;40775;51.448;4.742;2024-02-26T07:20:17;0.40;;;0.20;;
54881;SDS011;40775;51.448;4.742;2024-02-26T07:22:45;0.55;;;0.38;;
54881;SDS011;40775;51.448;4.742;2024-02-26T07:25:12;1.05;;;0.30;;
54881;SDS011;40775;51.448;4.742;2024-02-26T07:27:40;1.75;;;0.40;;
54881;SDS011;40775;51.448;4.742;2024-02-26T07:30:07;1.58;;;0.50;;
54881;SDS011;40775;51.448;4.742;2024-02-26T07:32:35;0.73;;;0.40;;
54881;SDS011;40775;51.448;4.742;2024-02-26T07:35:03;0.38;;;0.20;;
54881;SDS011;40775;51.448;4.742;2024-02-26T07:37:31;0.75;;;0.25;;
54881;SDS011;40775;51.448;4.742;2024-02-26T07:39:58;0.55;;;0.20;;
54881;SDS011;40775;51.448;4.742;2024-02-26T07:42:25;0.70;;;0.30;;
54881;SDS011;40775;51.448;4.742;2024-02-26T07:44:52;0.70;;;0.28;;
54881;SDS011;40775;51.448;4.742;2024-02-26T07:47:19;0.52;;;0.30;;
54881;SDS011;40775;51.448;4.742;2024-02-26T07:49:47;1.65;;;0.52;;
54881;SDS011;40775;51.448;4.742;2024-02-26T07:52:14;0.50;;;0.20;;
54881;SDS011;40775;51.448;4.742;2024-02-26T07:54:41;0.35;;;0.25;;
54881;SDS011;40775;51.448;4.742;2024-02-26T07:57:08;2.67;;;0.30;;
54881;SDS011;40775;51.448;4.742;2024-02-26T07:59:35;1.00;;;0.30;;
54881;SDS011;40775;51.448;4.742;2024-02-26T08:02:02;1.27;;;0.35;;
54881;SDS011;40775;51.448;4.742;2024-02-26T08:04:32;0.20;;;0.20;;
54881;SDS011;40775;51.448;4.742;2024-02-26T08:06:59;0.45;;;0.30;;
54881;SDS011;40775;51.448;4.742;2024-02-26T08:09:26;0.63;;;0.22;;
54881;SDS011;40775;51.448;4.742;2024-02-26T08:11:53;0.38;;;0.30;;
54881;SDS011;40775;51.448;4.742;2024-02-26T08:14:21;0.38;;;0.28;;
54881;SDS011;40775;51.448;4.742;2024-02-26T08:16:48;0.47;;;0.20;;
54881;SDS011;40775;51.448;4.742;2024-02-26T08:19:15;0.60;;;0.28;;
54881;SDS011;40775;51.448;4.742;2024-02-26T08:21:44;0.52;;;0.10;;
54881;SDS011;40775;51.448;4.742;2024-02-26T08:24:11;0.30;;;0.20;;
54881;SDS011;40775;51.448;4.742;2024-02-26T08:26:38;1.13;;;0.38;;
54881;SDS011;40775;51.448;4.742;2024-02-26T08:29:05;0.38;;;0.20;;
54881;SDS011;40775;51.448;4.742;2024-02-26T08:31:32;0.35;;;0.30;;
54881;SDS011;40775;51.448;4.742;2024-02-26T08:33:59;0.95;;;0.32;;
54881;SDS011;40775;51.448;4.742;2024-02-26T08:36:27;0.10;;;0.10;;
54881;SDS011;40775;51.448;4.742;2024-02-26T08:38:55;0.43;;;0.20;;
54881;SDS011;40775;51.448;4.742;2024-02-26T08:41:22;2.05;;;0.38;;
54881;SDS011;40775;51.448;4.742;2024-02-26T08:43:49;1.13;;;0.40;;
54881;SDS011;40775;51.448;4.742;2024-02-26T08:46:16;1.05;;;0.38;;
54881;SDS011;40775;51.448;4.742;2024-02-26T08:48:44;1.48;;;0.60;;
54881;SDS011;40775;51.448;4.742;2024-02-26T08:51:11;1.80;;;0.65;;
54881;SDS011;40775;51.448;4.742;2024-02-26T08:53:39;1.40;;;0.70;;
54881;SDS011;40775;51.448;4.742;2024-02-26T08:56:09;1.83;;;0.80;;
54881;SDS011;40775;51.448;4.742;2024-02-26T08:58:44;3.22;;;1.00;;
54881;SDS011;40775;51.448;4.742;2024-02-26T09:01:15;1.92;;;0.90;;
54881;SDS011;40775;51.448;4.742;2024-02-26T09:03:42;1.38;;;0.70;;
54881;SDS011;40775;51.448;4.742;2024-02-26T09:06:09;2.15;;;1.00;;
54881;SDS011;40775;51.448;4.742;2024-02-26T09:08:38;2.38;;;0.80;;
54881;SDS011;40775;51.448;4.742;2024-02-26T09:11:05;2.30;;;1.10;;
54881;SDS011;40775;51.448;4.742;2024-02-26T09:13:33;2.63;;;0.98;;
54881;SDS011;40775;51.448;4.742;2024-02-26T09:16:00;2.20;;;0.93;;
54881;SDS011;40775;51.448;4.742;2024-02-26T09:18:27;2.00;;;1.00;;
54881;SDS011;40775;51.448;4.742;2024-02-26T09:20:55;2.58;;;1.00;;
54881;SDS011;40775;51.448;4.742;2024-02-26T09:23:22;1.73;;;0.85;;
54881;SDS011;40775;51.448;4.742;2024-02-26T09:25:50;2.15;;;0.95;;
54881;SDS011;40775;51.448;4.742;2024-02-26T09:28:19;4.05;;;1.38;;
54881;SDS011;40775;51.448;4.742;2024-02-26T09:30:46;1.75;;;0.95;;
54881;SDS011;40775;51.448;4.742;2024-02-26T09:33:16;3.00;;;1.27;;
54881;SDS011;40775;51.448;4.742;2024-02-26T09:35:43;2.90;;;1.40;;
54881;SDS011;40775;51.448;4.742;2024-02-26T09:38:10;2.88;;;1.65;;
54881;SDS011;40775;51.448;4.742;2024-02-26T09:40:39;2.90;;;1.30;;
54881;SDS011;40775;51.448;4.742;2024-02-26T09:43:06;1.70;;;1.00;;
54881;SDS011;40775;51.448;4.742;2024-02-26T09:45:37;2.58;;;1.30;;
54881;SDS011;40775;51.448;4.742;2024-02-26T09:48:04;2.42;;;1.17;;
54881;SDS011;40775;51.448;4.742;2024-02-26T09:50:35;3.30;;;1.55;;
54881;SDS011;40775;51.448;4.742;2024-02-26T09:53:02;3.55;;;1.13;;
54881;SDS011;40775;51.448;4.742;2024-02-26T09:55:31;3.78;;;1.42;;
54881;SDS011;40775;51.448;4.742;2024-02-26T09:57:58;4.45;;;1.95;;
54881;SDS011;40775;51.448;4.742;2024-02-26T10:00:26;3.42;;;1.90;;
54881;SDS011;40775;51.448;4.742;2024-02-26T10:02:59;5.57;;;2.45;;
54881;SDS011;40775;51.448;4.742;2024-02-26T10:05:31;6.37;;;2.87;;
54881;SDS011;40775;51.448;4.742;2024-02-26T10:08:00;8.27;;;3.63;;
54881;SDS011;40775;51.448;4.742;2024-02-26T10:10:28;7.32;;;3.30;;
54881;SDS011;40775;51.448;4.742;2024-02-26T10:12:58;7.80;;;3.70;;
54881;SDS011;40775;51.448;4.742;2024-02-26T10:15:27;7.13;;;3.40;;
54881;SDS011;40775;51.448;4.742;2024-02-26T10:17:59;6.80;;;3.10;;
54881;SDS011;40775;51.448;4.742;2024-02-26T10:20:26;7.43;;;3.78;;
54881;SDS011;40775;51.448;4.742;2024-02-26T10:22:54;6.90;;;3.22;;
54881;SDS011;40775;51.448;4.742;2024-02-26T10:25:22;6.32;;;3.25;;
54881;SDS011;40775;51.448;4.742;2024-02-26T10:27:49;6.70;;;3.13;;
54881;SDS011;40775;51.448;4.742;2024-02-26T10:30:17;5.78;;;2.83;;
54881;SDS011;40775;51.448;4.742;2024-02-26T10:35:17;4.70;;;2.30;;
54881;SDS011;40775;51.448;4.742;2024-02-26T10:37:47;8.30;;;3.10;;
54881;SDS011;40775;51.448;4.742;2024-02-26T10:40:16;5.88;;;2.58;;
54881;SDS011;40775;51.448;4.742;2024-02-26T10:42:43;5.97;;;3.00;;
54881;SDS011;40775;51.448;4.742;2024-02-26T10:45:12;4.97;;;2.75;;
54881;SDS011;40775;51.448;4.742;2024-02-26T10:47:40;4.55;;;2.60;;
54881;SDS011;40775;51.448;4.742;2024-02-26T10:50:09;5.60;;;2.60;;
54881;SDS011;40775;51.448;4.742;2024-02-26T10:52:39;5.10;;;2.45;;
54881;SDS011;40775;51.448;4.742;2024-02-26T10:55:08;5.43;;;2.67;;
54881;SDS011;40775;51.448;4.742;2024-02-26T10:57:47;5.28;;;2.90;;
54881;SDS011;40775;51.448;4.742;2024-02-26T11:00:16;5.00;;;2.38;;
54881;SDS011;40775;51.448;4.742;2024-02-26T11:02:45;5.78;;;2.72;;
54881;SDS011;40775;51.448;4.742;2024-02-26T11:05:13;6.93;;;2.55;;
54881;SDS011;40775;51.448;4.742;2024-02-26T11:07:41;5.25;;;2.45;;
54881;SDS011;40775;51.448;4.742;2024-02-26T11:10:08;7.07;;;2.80;;
54881;SDS011;40775;51.448;4.742;2024-02-26T11:12:37;5.10;;;2.63;;
54881;SDS011;40775;51.448;4.742;2024-02-26T11:15:06;7.47;;;2.55;;
54881;SDS011;40775;51.448;4.742;2024-02-26T11:17:35;5.82;;;2.70;;
54881;SDS011;40775;51.448;4.742;2024-02-26T11:20:04;5.20;;;2.53;;
54881;SDS011;40775;51.448;4.742;2024-02-26T11:22:36;5.75;;;2.53;;
54881;SDS011;40775;51.448;4.742;2024-02-26T11:25:03;5.50;;;2.72;;
54881;SDS011;40775;51.448;4.742;2024-02-26T11:27:32;4.05;;;2.03;;
54881;SDS011;40775;51.448;4.742;2024-02-26T11:30:08;6.13;;;2.00;;
54881;SDS011;40775;51.448;4.742;2024-02-26T11:32:37;5.53;;;1.88;;
54881;SDS011;40775;51.448;4.742;2024-02-26T11:35:05;7.03;;;2.65;;
54881;SDS011;40775;51.448;4.742;2024-02-26T11:37:34;5.07;;;2.65;;
54881;SDS011;40775;51.448;4.742;2024-02-26T11:40:10;5.88;;;2.63;;
54881;SDS011;40775;51.448;4.742;2024-02-26T11:42:43;4.57;;;2.35;;
54881;SDS011;40775;51.448;4.742;2024-02-26T11:48:16;7.13;;;2.60;;
54881;SDS011;40775;51.448;4.742;2024-02-26T11:50:54;6.35;;;2.75;;
54881;SDS011;40775;51.448;4.742;2024-02-26T11:53:27;6.45;;;2.80;;
54881;SDS011;40775;51.448;4.742;2024-02-26T11:58:43;4.72;;;2.13;;
54881;SDS011;40775;51.448;4.742;2024-02-26T12:04:24;4.82;;;1.98;;
54881;SDS011;40775;51.448;4.742;2024-02-26T12:06:55;4.85;;;2.40;;
54881;SDS011;40775;51.448;4.742;2024-02-26T12:09:32;3.60;;;1.83;;
54881;SDS011;40775;51.448;4.742;2024-02-26T12:12:07;3.83;;;2.20;;
54881;SDS011;40775;51.448;4.742;2024-02-26T12:14:40;2.78;;;1.67;;
54881;SDS011;40775;51.448;4.742;2024-02-26T12:17:22;3.72;;;1.77;;
54881;SDS011;40775;51.448;4.742;2024-02-26T12:19:51;4.20;;;1.73;;
54881;SDS011;40775;51.448;4.742;2024-02-26T12:22:20;5.18;;;1.92;;
54881;SDS011;40775;51.448;4.742;2024-02-26T12:24:47;4.97;;;1.77;;
54881;SDS011;40775;51.448;4.742;2024-02-26T12:27:24;4.03;;;1.65;;
54881;SDS011;40775;51.448;4.742;2024-02-26T12:29:54;4.55;;;2.15;;
54881;SDS011;40775;51.448;4.742;2024-02-26T12:32:21;3.97;;;2.10;;
54881;SDS011;40775;51.448;4.742;2024-02-26T12:34:49;3.80;;;2.05;;
54881;SDS011;40775;51.448;4.742;2024-02-26T12:37:16;5.03;;;1.70;;
54881;SDS011;40775;51.448;4.742;2024-02-26T12:39:44;4.20;;;1.40;;
54881;SDS011;40775;51.448;4.742;2024-02-26T12:42:12;3.97;;;1.65;;
54881;SDS011;40775;51.448;4.742;2024-02-26T12:44:40;3.42;;;2.08;;
54881;SDS011;40775;51.448;4.742;2024-02-26T12:47:07;4.72;;;1.95;;
54881;SDS011;40775;51.448;4.742;2024-02-26T12:49:36;4.35;;;1.80;;
54881;SDS011;40775;51.448;4.742;2024-02-26T12:52:04;2.88;;;1.63;;
54881;SDS011;40775;51.448;4.742;2024-02-26T12:54:32;3.10;;;1.92;;
54881;SDS011;40775;51.448;4.742;2024-02-26T12:57:01;2.97;;;1.73;;
54881;SDS011;40775;51.448;4.742;2024-02-26T12:59:30;3.08;;;1.70;;
54881;SDS011;40775;51.448;4.742;2024-02-26T13:01:58;5.65;;;2.08;;
54881;SDS011;40775;51.448;4.742;2024-02-26T13:04:26;3.13;;;1.90;;
54881;SDS011;40775;51.448;4.742;2024-02-26T13:06:56;3.75;;;2.13;;
54881;SDS011;40775;51.448;4.742;2024-02-26T13:09:31;3.40;;;2.03;;
54881;SDS011;40775;51.448;4.742;2024-02-26T13:12:03;4.80;;;1.92;;
54881;SDS011;40775;51.448;4.742;2024-02-26T13:14:34;4.70;;;2.38;;
54881;SDS011;40775;51.448;4.742;2024-02-26T13:17:02;3.28;;;1.90;;
54881;SDS011;40775;51.448;4.742;2024-02-26T13:19:29;4.93;;;2.30;;
54881;SDS011;40775;51.448;4.742;2024-02-26T13:22:06;4.22;;;2.17;;
54881;SDS011;40775;51.448;4.742;2024-02-26T13:24:34;4.95;;;2.28;;
54881;SDS011;40775;51.448;4.742;2024-02-26T13:27:02;2.60;;;1.70;;
54881;SDS011;40775;51.448;4.742;2024-02-26T13:29:31;3.75;;;1.80;;
54881;SDS011;40775;51.448;4.742;2024-02-26T13:31:58;3.25;;;1.77;;
54881;SDS011;40775;51.448;4.742;2024-02-26T13:34:26;4.28;;;2.45;;
54881;SDS011;40775;51.448;4.742;2024-02-26T13:36:55;4.68;;;2.47;;
54881;SDS011;40775;51.448;4.742;2024-02-26T13:39:23;4.80;;;2.58;;
54881;SDS011;40775;51.448;4.742;2024-02-26T13:41:53;5.13;;;2.47;;
54881;SDS011;40775;51.448;4.742;2024-02-26T13:44:21;3.47;;;2.28;;
54881;SDS011;40775;51.448;4.742;2024-02-26T13:46:50;4.57;;;1.75;;
54881;SDS011;40775;51.448;4.742;2024-02-26T13:49:17;3.80;;;1.80;;
54881;SDS011;40775;51.448;4.742;2024-02-26T13:51:45;7.32;;;1.92;;
54881;SDS011;40775;51.448;4.742;2024-02-26T13:54:12;2.83;;;1.50;;
54881;SDS011;40775;51.448;4.742;2024-02-26T13:56:41;4.10;;;1.90;;
54881;SDS011;40775;51.448;4.742;2024-02-26T13:59:12;4.47;;;2.00;;
54881;SDS011;40775;51.448;4.742;2024-02-26T14:01:39;3.08;;;1.48;;
54881;SDS011;40775;51.448;4.742;2024-02-26T14:04:06;3.30;;;1.60;;
54881;SDS011;40775;51.448;4.742;2024-02-26T14:06:35;3.38;;;1.48;;
54881;SDS011;40775;51.448;4.742;2024-02-26T14:09:02;2.78;;;1.65;;
54881;SDS011;40775;51.448;4.742;2024-02-26T14:11:30;3.78;;;1.75;;
54881;SDS011;40775;51.448;4.742;2024-02-26T14:13:57;3.53;;;1.70;;
54881;SDS011;40775;51.448;4.742;2024-02-26T14:16:24;4.85;;;1.90;;
54881;SDS011;40775;51.448;4.742;2024-02-26T14:18:52;3.30;;;1.42;;
54881;SDS011;40775;51.448;4.742;2024-02-26T14:21:19;4.05;;;1.92;;
54881;SDS011;40775;51.448;4.742;2024-02-26T14:23:47;2.67;;;1.38;;
54881;SDS011;40775;51.448;4.742;2024-02-26T14:26:14;3.22;;;1.55;;
54881;SDS011;40775;51.448;4.742;2024-02-26T14:28:41;4.25;;;1.60;;
54881;SDS011;40775;51.448;4.742;2024-02-26T14:31:08;2.67;;;1.15;;
54881;SDS011;40775;51.448;4.742;2024-02-26T14:33:37;4.10;;;2.03;;
54881;SDS011;40775;51.448;4.742;2024-02-26T14:36:06;2.80;;;1.20;;
54881;SDS011;40775;51.448;4.742;2024-02-26T14:38:34;3.15;;;1.23;;
54881;SDS011;40775;51.448;4.742;2024-02-26T14:41:02;3.88;;;1.58;;
54881;SDS011;40775;51.448;4.742;2024-02-26T14:43:29;2.70;;;1.33;;
54881;SDS011;40775;51.448;4.742;2024-02-26T14:45:58;2.40;;;1.02;;
54881;SDS011;40775;51.448;4.742;2024-02-26T14:48:25;2.28;;;1.25;;
54881;SDS011;40775;51.448;4.742;2024-02-26T14:50:53;2.90;;;1.20;;
54881;SDS011;40775;51.448;4.742;2024-02-26T14:53:20;4.30;;;1.75;;
54881;SDS011;40775;51.448;4.742;2024-02-26T14:55:47;2.85;;;1.45;;
54881;SDS011;40775;51.448;4.742;2024-02-26T14:58:14;2.58;;;1.20;;
54881;SDS011;40775;51.448;4.742;2024-02-26T15:00:42;3.78;;;1.55;;
54881;SDS011;40775;51.448;4.742;2024-02-26T15:03:09;2.25;;;1.23;;
54881;SDS011;40775;51.448;4.742;2024-02-26T15:05:37;1.52;;;0.90;;